Time;durP1;ratioP1;P1;durP2;ratioP2;P2;SDS_P1;SDS_P2;PMS_P1;PMS_P2;Temp;Humidity;BMP_temperature;BMP_pressure;BME280_temperature;BME280_humidity;BME280_pressure;Samples;Min_cycle;Max_cycle;Signal;HPM_P1;HPM_P2
2022/07/20 00:00:56;;;;;;;4.25;1.73;;;;;;;20.70;41.83;99161.94;4485899;32;20166;-71
2022/07/20 00:03:23;;;;;;;4.53;1.70;;;;;;;20.65;41.98;99164.34;4486104;31;20605;-71
2022/07/20 00:05:51;;;;;;;2.60;1.60;;;;;;;20.56;42.13;99163.63;4475331;32;20093;-71
2022/07/20 00:11:19;;;;;;;3.55;1.65;;;;;;;20.50;42.57;99171.56;4470140;32;20093;-71
2022/07/20 00:11:21;;;;;;;3.92;1.75;;;;;;;20.42;43.31;99169.03;4470259;32;20088;-71
2022/07/20 00:13:52;;;;;;;4.80;1.50;;;;;;;20.28;44.13;99162.78;4470279;32;20415;-70
2022/07/20 00:16:20;;;;;;;3.37;1.75;;;;;;;20.17;44.49;99170.25;4470491;32;20088;-71
2022/07/20 00:18:48;;;;;;;8.63;1.80;;;;;;;20.08;44.07;99165.25;4469823;32;20100;-71
2022/07/20 00:21:16;;;;;;;6.57;1.80;;;;;;;19.99;44.23;99165.34;4470169;32;20101;-71
2022/07/20 00:23:43;;;;;;;5.80;1.75;;;;;;;19.90;45.31;99163.81;4470017;32;20104;-71
2022/07/20 00:26:11;;;;;;;3.25;1.73;;;;;;;19.83;45.42;99160.25;4470198;32;20161;-70
2022/07/20 00:28:38;;;;;;;7.37;2.40;;;;;;;19.80;45.39;99171.25;4470164;32;20538;-70
2022/07/20 00:31:05;;;;;;;2.47;1.77;;;;;;;19.76;45.37;99160.16;4470086;32;20441;-71
2022/07/20 00:33:33;;;;;;;3.22;1.70;;;;;;;19.72;45.27;99166.84;4469945;32;20116;-71
2022/07/20 00:36:00;;;;;;;2.75;1.60;;;;;;;19.79;44.47;99164.31;4470059;32;20093;-70
2022/07/20 00:38:27;;;;;;;6.90;1.80;;;;;;;19.89;43.18;99167.47;4470078;32;20092;-71
2022/07/20 00:40:55;;;;;;;4.00;1.60;;;;;;;20.01;43.56;99158.00;4469963;32;20093;-70
2022/07/20 00:43:22;;;;;;;5.00;2.22;;;;;;;20.02;43.43;99162.31;4469778;32;20096;-71
2022/07/20 00:45:49;;;;;;;5.50;1.65;;;;;;;20.05;43.08;99168.28;4469736;32;20096;-71
2022/07/20 00:48:16;;;;;;;2.95;1.70;;;;;;;20.05;43.36;99160.31;4469858;32;20110;-71
2022/07/20 00:50:43;;;;;;;4.05;1.42;;;;;;;20.06;43.27;99154.78;4470145;32;20513;-70
2022/07/20 00:53:11;;;;;;;3.92;1.70;;;;;;;20.03;43.76;99158.66;4470057;32;20135;-71
2022/07/20 00:55:38;;;;;;;5.80;1.87;;;;;;;20.01;43.61;99155.34;4469882;32;20088;-71
2022/07/20 00:58:05;;;;;;;2.17;1.62;;;;;;;20.01;43.65;99155.34;4469878;32;20115;-70
2022/07/20 01:00:32;;;;;;;3.85;1.80;;;;;;;20.01;43.29;99147.34;4477239;32;20096;-71
2022/07/20 01:02:59;;;;;;;4.47;1.65;;;;;;;19.99;44.22;99154.72;4485635;31;20089;-71
2022/07/20 01:05:27;;;;;;;4.07;1.40;;;;;;;19.95;44.15;99150.78;4485475;31;20169;-70
2022/07/20 01:07:54;;;;;;;3.78;2.10;;;;;;;19.89;44.17;99151.53;4485592;32;20176;-71
2022/07/20 01:10:21;;;;;;;6.78;1.83;;;;;;;19.90;44.69;99149.72;4485549;31;20506;-71
2022/07/20 01:12:49;;;;;;;3.40;1.85;;;;;;;19.88;44.39;99157.88;4485507;32;20460;-70
2022/07/20 01:15:17;;;;;;;5.75;1.87;;;;;;;19.89;44.77;99158.69;4485496;31;20113;-70
2022/07/20 01:17:44;;;;;;;3.58;1.75;;;;;;;19.84;44.61;99152.09;4485251;31;20487;-70
2022/07/20 01:20:17;;;;;;;3.35;1.70;;;;;;;19.82;44.72;99154.13;4485520;31;20565;-71
2022/07/20 01:22:46;;;;;;;4.28;1.70;;;;;;;19.86;44.60;99157.22;4485519;31;20093;-71
2022/07/20 01:25:13;;;;;;;4.70;1.85;;;;;;;19.82;44.72;99159.44;4485565;31;20442;-70
2022/07/20 01:27:40;;;;;;;4.22;1.73;;;;;;;19.84;44.51;99159.25;4485174;31;20093;-71
2022/07/20 01:30:09;;;;;;;4.30;1.95;;;;;;;19.83;44.77;99160.25;4485495;31;20092;-71
2022/07/20 01:32:36;;;;;;;3.28;1.45;;;;;;;19.81;45.27;99156.97;4485339;31;20100;-70
2022/07/20 01:35:03;;;;;;;3.42;1.77;;;;;;;19.78;45.55;99160.81;4485196;31;20118;-70
2022/07/20 01:37:31;;;;;;;3.30;1.55;;;;;;;19.76;45.97;99157.50;4485789;32;20149;-70
2022/07/20 01:39:58;;;;;;;6.37;1.65;;;;;;;19.73;45.69;99159.69;4485323;31;20377;-71
2022/07/20 01:42:25;;;;;;;5.37;1.90;;;;;;;19.68;45.86;99162.91;4485345;31;20442;-71
2022/07/20 01:44:52;;;;;;;2.67;1.30;;;;;;;19.58;46.70;99160.56;4485492;32;20154;-70
2022/07/20 01:47:19;;;;;;;4.93;2.10;;;;;;;19.48;46.84;99160.84;4485066;32;20084;-70
2022/07/20 01:49:47;;;;;;;2.40;1.80;;;;;;;19.36;47.17;99159.66;4484988;31;20126;-71
2022/07/20 01:52:14;;;;;;;4.18;1.98;;;;;;;19.29;47.32;99164.91;4485222;31;20112;-70
2022/07/20 01:54:41;;;;;;;2.00;1.80;;;;;;;19.22;47.72;99169.28;4484785;32;20092;-70
2022/07/20 01:57:08;;;;;;;3.47;1.70;;;;;;;19.16;48.00;99170.03;4485031;32;20100;-70
2022/07/20 01:59:35;;;;;;;3.30;1.70;;;;;;;19.11;48.09;99167.91;4484997;31;20519;-71
2022/07/20 02:02:03;;;;;;;4.35;1.83;;;;;;;19.08;48.46;99168.28;4485512;31;20105;-70
2022/07/20 02:04:34;;;;;;;2.92;1.90;;;;;;;19.02;48.31;99165.53;4484959;31;20089;-71
2022/07/20 02:07:01;;;;;;;3.42;1.50;;;;;;;19.09;47.04;99167.28;4485212;31;20115;-71
2022/07/20 02:09:28;;;;;;;2.87;1.80;;;;;;;19.14;48.43;99172.84;4485084;32;20598;-70
2022/07/20 02:11:56;;;;;;;5.53;1.80;;;;;;;19.08;48.75;99172.78;4484971;31;20104;-71
2022/07/20 02:14:23;;;;;;;4.05;1.70;;;;;;;18.99;48.85;99171.22;4485044;32;20157;-71
2022/07/20 02:16:50;;;;;;;3.90;1.95;;;;;;;18.94;47.82;99169.06;4484873;31;20080;-70
2022/07/20 02:19:17;;;;;;;6.25;1.80;;;;;;;19.07;46.55;99166.62;4484599;32;20108;-70
2022/07/20 02:21:44;;;;;;;7.05;2.22;;;;;;;19.24;45.72;99169.09;4485048;32;20525;-70
2022/07/20 02:24:12;;;;;;;3.47;1.60;;;;;;;19.33;45.93;99160.88;4484897;31;20096;-71
2022/07/20 02:26:39;;;;;;;3.90;1.65;;;;;;;19.35;46.11;99157.19;4484864;31;20170;-70
2022/07/20 02:29:06;;;;;;;5.12;1.62;;;;;;;19.33;46.09;99160.88;4484765;31;20096;-70
2022/07/20 02:31:33;;;;;;;4.62;1.52;;;;;;;19.44;45.41;99156.06;4484963;31;20092;-71
2022/07/20 02:34:01;;;;;;;3.05;1.58;;;;;;;19.43;45.52;99151.78;4484958;32;20096;-70
2022/07/20 02:36:28;;;;;;;3.12;1.60;;;;;;;19.42;45.47;99164.22;4484735;32;20475;-70
2022/07/20 02:38:55;;;;;;;7.70;1.70;;;;;;;19.36;45.62;99158.84;4484912;31;20088;-71
2022/07/20 02:41:23;;;;;;;2.35;1.62;;;;;;;19.27;46.04;99158.94;4484919;32;20152;-71
2022/07/20 02:43:50;;;;;;;6.40;1.77;;;;;;;19.22;46.16;99156.00;4484790;31;20122;-71
2022/07/20 02:46:24;;;;;;;3.37;1.75;;;;;;;19.33;45.21;99155.56;4484827;31;20422;-70
2022/07/20 02:48:51;;;;;;;3.47;1.52;;;;;;;19.75;44.05;99161.16;4484329;31;20476;-71
2022/07/20 02:51:19;;;;;;;1.65;1.35;;;;;;;20.02;43.42;99154.31;4484692;31;20101;-70
2022/07/20 02:53:47;;;;;;;3.42;1.25;;;;;;;20.02;43.46;99154.31;4484567;32;20092;-70
2022/07/20 02:56:14;;;;;;;4.47;1.40;;;;;;;19.95;43.53;99148.09;4484469;31;20084;-70
2022/07/20 02:58:41;;;;;;;6.30;1.85;;;;;;;20.08;43.18;99157.25;4484565;32;20119;-70
2022/07/20 03:01:08;;;;;;;5.10;1.77;;;;;;;20.27;42.70;99156.59;4484429;31;20127;-70
2022/07/20 03:03:36;;;;;;;8.32;1.65;;;;;;;20.41;42.48;99167.38;4484548;31;20115;-70
2022/07/20 03:06:03;;;;;;;2.03;1.35;;;;;;;20.54;42.11;99167.50;4472477;32;20151;-71
2022/07/20 03:08:31;;;;;;;7.45;1.30;;;;;;;20.63;41.84;99165.53;4470126;32;20153;-70
2022/07/20 03:10:58;;;;;;;4.22;1.62;;;;;;;20.73;41.54;99164.22;4470639;32;20089;-71
2022/07/20 03:13:25;;;;;;;3.87;1.40;;;;;;;20.83;41.23;99171.03;4470649;32;20104;-70
2022/07/20 03:15:53;;;;;;;3.58;1.60;;;;;;;20.91;40.99;99165.56;4470448;32;20111;-71
2022/07/20 03:18:20;;;;;;;3.65;1.52;;;;;;;20.96;40.91;99165.81;4470446;32;20461;-70
2022/07/20 03:20:47;;;;;;;2.85;1.55;;;;;;;21.08;40.83;99161.56;4470535;32;20096;-70
2022/07/20 03:23:14;;;;;;;5.03;1.50;;;;;;;21.13;40.85;99165.50;4470607;32;20113;-70
2022/07/20 03:25:41;;;;;;;2.35;1.48;;;;;;;21.11;40.89;99172.88;4470438;32;20115;-70
2022/07/20 03:28:09;;;;;;;2.90;1.27;;;;;;;21.10;41.04;99174.69;4470343;32;20145;-70
2022/07/20 03:30:36;;;;;;;4.65;1.40;;;;;;;21.07;40.91;99178.59;4470531;32;20100;-70
2022/07/20 03:33:03;;;;;;;3.15;1.58;;;;;;;21.11;41.11;99172.88;4470579;32;20112;-71
2022/07/20 03:35:30;;;;;;;2.30;1.25;;;;;;;21.07;41.35;99177.75;4470311;32;20107;-71
2022/07/20 03:37:58;;;;;;;4.05;1.50;;;;;;;20.99;41.62;99186.72;4470778;32;20104;-71
2022/07/20 03:40:25;;;;;;;4.07;1.37;;;;;;;20.99;41.56;99186.72;4470438;32;20096;-71
2022/07/20 03:42:52;;;;;;;2.03;1.33;;;;;;;21.01;41.55;99189.19;4470571;32;20101;-71
2022/07/20 03:45:19;;;;;;;4.85;1.42;;;;;;;20.97;41.57;99187.91;4470403;32;20124;-70
2022/07/20 03:47:55;;;;;;;4.40;1.60;;;;;;;20.98;41.84;99193.06;4470028;32;20155;-70
2022/07/20 03:50:22;;;;;;;3.33;1.37;;;;;;;21.01;41.74;99184.66;4470255;32;20158;-70
2022/07/20 03:52:49;;;;;;;3.70;1.60;;;;;;;21.04;41.56;99189.59;4470332;32;20841;-71
2022/07/20 03:55:17;;;;;;;3.20;1.70;;;;;;;21.05;41.91;99185.94;4470168;32;20173;-71
2022/07/20 03:57:44;;;;;;;3.30;1.12;;;;;;;21.07;42.03;99194.56;4470595;32;20142;-71
2022/07/20 04:00:12;;;;;;;6.07;1.60;;;;;;;21.08;42.34;99196.19;4475497;32;20115;-70
2022/07/20 04:02:39;;;;;;;3.78;1.20;;;;;;;21.17;42.65;99193.41;4486073;32;20157;-71
2022/07/20 04:05:08;;;;;;;4.20;1.30;;;;;;;21.24;42.99;99194.25;4485764;31;20097;-71
2022/07/20 04:07:35;;;;;;;2.45;1.42;;;;;;;21.34;43.44;99202.72;4485983;31;20092;-71
2022/07/20 04:10:03;;;;;;;2.30;1.33;;;;;;;21.42;42.36;99199.06;4485866;32;20150;-71
2022/07/20 04:12:30;;;;;;;1.67;1.30;;;;;;;21.63;41.29;99192.84;4485970;31;20100;-71
2022/07/20 04:14:57;;;;;;;2.92;1.58;;;;;;;21.82;41.20;99203.78;4486005;31;20097;-71
2022/07/20 04:17:25;;;;;;;6.60;1.58;;;;;;;22.02;40.85;99204.69;4485636;32;20143;-71
2022/07/20 04:19:52;;;;;;;3.12;1.17;;;;;;;22.20;41.14;99197.97;4485544;31;20092;-71
2022/07/20 04:22:19;;;;;;;2.35;1.00;;;;;;;22.33;40.72;99192.66;4485829;31;20499;-71
2022/07/20 04:24:46;;;;;;;7.57;1.40;;;;;;;22.46;41.22;99198.00;4485660;31;20152;-71
2022/07/20 04:27:13;;;;;;;2.75;1.48;;;;;;;22.61;40.69;99205.03;4485658;32;20088;-71
2022/07/20 04:29:40;;;;;;;7.30;2.08;;;;;;;22.76;41.21;99197.62;4485933;31;20186;-71
2022/07/20 04:32:08;;;;;;;4.07;1.35;;;;;;;22.90;41.80;99202.97;4485651;32;20089;-71
2022/07/20 04:34:35;;;;;;;12.20;1.90;;;;;;;23.01;41.64;99213.00;4485777;31;20107;-71
2022/07/20 04:37:06;;;;;;;2.62;1.50;;;;;;;23.07;41.83;99204.16;4485567;32;20460;-71
2022/07/20 04:39:34;;;;;;;5.05;1.58;;;;;;;23.17;40.94;99209.94;4485643;32;20119;-71
2022/07/20 04:42:02;;;;;;;3.35;1.30;;;;;;;23.26;40.97;99223.09;4485718;31;20486;-71
2022/07/20 04:44:29;;;;;;;2.72;1.37;;;;;;;23.43;40.54;99213.59;4485778;31;20093;-71
2022/07/20 04:46:56;;;;;;;6.65;1.40;;;;;;;23.59;40.19;99217.66;4484248;32;20510;-71
2022/07/20 04:49:24;;;;;;;2.53;1.35;;;;;;;23.77;39.72;99219.66;4485378;32;20153;-71
2022/07/20 04:51:51;;;;;;;8.38;1.37;;;;;;;23.92;39.45;99220.25;4485599;31;20564;-71
2022/07/20 04:54:18;;;;;;;9.07;1.40;;;;;;;24.14;40.16;99208.41;4485638;32;20177;-71
2022/07/20 04:56:46;;;;;;;3.42;1.83;;;;;;;24.33;39.74;99206.63;4485538;32;20085;-71
2022/07/20 04:59:13;;;;;;;4.28;1.30;;;;;;;24.52;39.78;99208.34;4485924;31;20100;-71
2022/07/20 05:01:41;;;;;;;3.75;1.50;;;;;;;24.77;39.87;99212.94;4485499;31;20100;-71
2022/07/20 05:04:11;;;;;;;2.80;1.50;;;;;;;24.86;37.71;99216.97;4485633;31;20176;-71
2022/07/20 05:06:38;;;;;;;9.15;1.40;;;;;;;25.10;37.53;99214.47;4485409;31;20118;-71
2022/07/20 05:09:10;;;;;;;3.28;1.30;;;;;;;25.21;37.36;99218.28;4485619;31;20496;-71
2022/07/20 05:11:38;;;;;;;9.05;1.50;;;;;;;25.41;36.18;99224.31;4485566;31;20089;-71
2022/07/20 05:14:08;;;;;;;9.70;1.73;;;;;;;25.60;35.81;99219.78;4485640;32;20482;-71
2022/07/20 05:16:36;;;;;;;4.03;1.70;;;;;;;25.83;35.17;99219.06;4485368;31;20091;-71
2022/07/20 05:19:03;;;;;;;2.25;1.27;;;;;;;25.95;34.21;99220.97;4485411;31;20116;-71
2022/07/20 05:21:39;;;;;;;4.35;1.08;;;;;;;26.05;33.46;99223.16;4485337;31;20084;-71
2022/07/20 05:24:06;;;;;;;3.03;1.70;;;;;;;26.16;33.60;99222.38;4485474;31;20155;-71
2022/07/20 05:26:33;;;;;;;5.12;1.02;;;;;;;26.51;33.33;99216.28;4485189;31;20466;-71
2022/07/20 05:29:01;;;;;;;5.20;1.20;;;;;;;26.54;32.43;99215.81;4485561;31;20096;-71
2022/07/20 05:31:28;;;;;;;2.87;1.20;;;;;;;26.69;31.97;99218.94;4484566;32;20092;-71
2022/07/20 05:33:55;;;;;;;4.35;1.50;;;;;;;26.81;32.28;99220.81;4485836;31;20518;-71
2022/07/20 05:36:23;;;;;;;6.62;1.42;;;;;;;26.76;30.99;99229.56;4485307;31;20104;-71
2022/07/20 05:38:50;;;;;;;3.67;1.08;;;;;;;26.92;31.04;99217.34;4485219;31;20096;-71
2022/07/20 05:41:18;;;;;;;3.62;1.17;;;;;;;27.09;30.93;99226.31;4485343;31;20161;-71
2022/07/20 05:43:45;;;;;;;3.50;1.27;;;;;;;27.30;30.62;99232.16;4485392;32;20149;-71
2022/07/20 05:46:12;;;;;;;2.37;1.23;;;;;;;27.39;29.99;99221.88;4485197;32;20154;-71
2022/07/20 05:48:40;;;;;;;4.53;1.00;;;;;;;27.36;29.64;99225.88;4484808;31;20131;-71
2022/07/20 05:51:08;;;;;;;2.22;1.37;;;;;;;27.40;29.45;99228.91;4485145;32;20096;-71
2022/07/20 05:53:35;;;;;;;2.25;1.27;;;;;;;27.46;29.54;99227.16;4485164;32;20672;-71
2022/07/20 05:56:02;;;;;;;3.03;1.20;;;;;;;27.56;29.44;99230.06;4485031;32;20088;-71
2022/07/20 05:58:30;;;;;;;5.10;1.30;;;;;;;27.51;29.61;99230.78;4485194;31;20104;-71
2022/07/20 06:00:57;;;;;;;4.47;1.42;;;;;;;27.74;29.66;99237.16;4485382;31;20449;-71
2022/07/20 06:03:24;;;;;;;3.87;1.17;;;;;;;27.89;29.31;99229.38;4485251;31;20445;-71
2022/07/20 06:05:52;;;;;;;2.15;1.05;;;;;;;28.02;28.67;99233.69;4485197;31;20468;-71
2022/07/20 06:08:19;;;;;;;3.30;1.30;;;;;;;27.99;28.82;99236.06;4485441;32;20593;-71
2022/07/20 06:10:47;;;;;;;4.93;1.30;;;;;;;28.07;28.76;99231.09;4485222;31;20135;-71
2022/07/20 06:13:14;;;;;;;2.33;1.20;;;;;;;28.16;28.43;99236.91;4485203;31;20104;-71
2022/07/20 06:15:41;;;;;;;3.87;1.30;;;;;;;28.19;28.29;99238.31;4485129;31;20510;-71
2022/07/20 06:18:09;;;;;;;14.43;2.97;;;;;;;28.40;28.27;99240.31;4484756;32;20127;-71
2022/07/20 06:20:36;;;;;;;22.70;3.20;;;;;;;28.54;32.28;99235.44;4485462;31;20450;-71
2022/07/20 06:23:03;;;;;;;16.77;4.10;;;;;;;28.74;33.40;99240.38;4485051;31;20121;-71
2022/07/20 06:25:30;;;;;;;20.92;2.55;;;;;;;28.68;32.20;99244.06;4485084;32;20149;-71
2022/07/20 06:28:00;;;;;;;11.18;2.53;;;;;;;28.73;32.28;99244.13;4484971;31;20095;-71
2022/07/20 06:30:27;;;;;;;16.55;2.67;;;;;;;28.78;32.49;99241.53;4485041;31;20096;-71
2022/07/20 06:32:55;;;;;;;24.05;2.78;;;;;;;28.88;31.95;99240.06;4484982;32;20351;-71
2022/07/20 06:35:22;;;;;;;19.30;4.90;;;;;;;29.08;31.93;99247.63;4485119;32;20100;-71
2022/07/20 06:37:50;;;;;;;13.02;2.45;;;;;;;29.18;32.88;99245.91;4484933;31;20112;-71
2022/07/20 06:40:17;;;;;;;18.45;2.65;;;;;;;29.41;32.39;99244.09;4484998;31;20124;-71
2022/07/20 06:42:44;;;;;;;17.75;2.55;;;;;;;29.47;31.93;99237.69;4485038;31;20153;-71
2022/07/20 06:45:11;;;;;;;21.52;2.72;;;;;;;29.61;31.61;99240.03;4484882;32;20114;-71
2022/07/20 06:47:39;;;;;;;9.60;2.45;;;;;;;29.70;31.10;99243.91;4484560;32;20159;-71
2022/07/20 06:50:07;;;;;;;14.50;2.70;;;;;;;29.96;31.13;99249.66;4485093;31;20193;-71
2022/07/20 06:52:34;;;;;;;13.70;2.92;;;;;;;30.01;30.34;99247.00;4484831;31;20084;-71
2022/07/20 06:55:05;;;;;;;11.27;2.47;;;;;;;30.01;30.62;99242.41;4485061;31;20109;-71
2022/07/20 06:57:32;;;;;;;11.10;2.08;;;;;;;30.02;30.88;99252.13;4484543;31;20438;-71
2022/07/20 06:59:59;;;;;;;16.23;2.70;;;;;;;30.01;29.99;99244.28;4484408;32;20104;-71
2022/07/20 07:02:26;;;;;;;11.63;3.17;;;;;;;30.08;31.47;99250.31;4484773;31;20123;-71
2022/07/20 07:04:54;;;;;;;12.80;2.37;;;;;;;30.26;29.93;99241.84;4484499;31;20416;-71
2022/07/20 07:07:21;;;;;;;4.25;1.92;;;;;;;30.27;29.74;99238.09;4484418;32;20533;-71
2022/07/20 07:09:48;;;;;;;12.02;2.35;;;;;;;30.31;30.85;99242.97;4484290;31;20573;-71
2022/07/20 07:12:15;;;;;;;8.40;2.70;;;;;;;30.32;29.83;99240.03;4484373;31;20091;-71
2022/07/20 07:14:42;;;;;;;9.25;2.17;;;;;;;30.30;30.53;99249.47;4483056;32;20201;-71
2022/07/20 07:17:10;;;;;;;7.75;2.20;;;;;;;30.39;31.76;99254.16;4484265;32;20494;-71
2022/07/20 07:19:39;;;;;;;6.03;1.92;;;;;;;30.29;31.44;99247.84;4483955;32;20134;-71
2022/07/20 07:22:06;;;;;;;7.70;2.45;;;;;;;30.38;29.85;99249.00;4484467;31;20093;-71
2022/07/20 07:24:34;;;;;;;8.13;2.30;;;;;;;30.43;31.49;99246.37;4484077;31;20180;-71
2022/07/20 07:27:02;;;;;;;12.88;2.33;;;;;;;30.51;30.68;99251.31;4484092;31;20111;-71
2022/07/20 07:29:29;;;;;;;13.43;2.90;;;;;;;30.57;31.05;99257.59;4484378;31;20109;-71
2022/07/20 07:32:00;;;;;;;4.82;2.10;;;;;;;30.45;30.60;99252.34;4484092;31;20115;-71
2022/07/20 07:34:28;;;;;;;12.07;2.55;;;;;;;30.63;30.88;99251.16;4482752;32;20081;-71
2022/07/20 07:36:55;;;;;;;17.00;2.70;;;;;;;30.59;29.75;99258.97;4483952;31;20096;-71
2022/07/20 07:39:23;;;;;;;4.90;2.30;;;;;;;30.53;30.71;99257.28;4484101;31;20104;-71
2022/07/20 07:41:50;;;;;;;10.35;2.45;;;;;;;30.66;31.33;99252.50;4483875;31;20096;-71
2022/07/20 07:44:17;;;;;;;13.48;2.80;;;;;;;30.65;30.55;99253.59;4483971;31;20114;-71
2022/07/20 07:46:44;;;;;;;10.38;2.20;;;;;;;30.60;30.01;99249.78;4483955;32;20088;-71
2022/07/20 07:49:12;;;;;;;12.77;2.12;;;;;;;30.92;30.15;99250.84;4483613;31;20097;-71
2022/07/20 07:51:39;;;;;;;11.73;2.42;;;;;;;31.04;29.05;99256.06;4483811;31;20093;-71
2022/07/20 07:54:06;;;;;;;11.80;2.72;;;;;;;31.06;29.32;99251.25;4484936;32;20112;-71
2022/07/20 07:56:34;;;;;;;8.95;2.95;;;;;;;31.13;29.40;99246.41;4485870;32;20096;-71
2022/07/20 07:59:01;;;;;;;9.35;2.25;;;;;;;31.04;29.42;99245.25;4485992;31;20139;-71
2022/07/20 08:01:48;;;;;;;7.30;1.90;;;;;;;31.29;29.04;99240.00;4485788;31;20104;-71
2022/07/20 08:04:16;;;;;;;5.70;2.08;;;;;;;31.48;28.34;99240.38;4485988;31;20139;-71
2022/07/20 08:06:43;;;;;;;3.50;2.08;;;;;;;31.49;28.85;99247.44;4485907;31;20445;-71
2022/07/20 08:09:11;;;;;;;7.18;2.10;;;;;;;31.58;27.94;99247.75;4485862;31;20446;-71
2022/07/20 08:11:38;;;;;;;6.93;1.83;;;;;;;31.52;28.02;99240.66;4485974;31;20581;-71
2022/07/20 08:14:05;;;;;;;6.47;1.90;;;;;;;31.71;26.98;99237.53;4485791;31;20089;-71
2022/07/20 08:16:32;;;;;;;7.20;1.85;;;;;;;31.57;26.44;99238.03;4485886;32;20100;-71
2022/07/20 08:19:00;;;;;;;4.18;1.67;;;;;;;31.26;25.60;99237.81;4485487;31;20466;-71
2022/07/20 08:21:27;;;;;;;7.70;1.52;;;;;;;31.10;25.89;99233.41;4485856;31;20088;-71
2022/07/20 08:24:05;;;;;;;4.12;1.60;;;;;;;31.23;24.64;99232.13;4485804;32;20077;-71
2022/07/20 08:26:32;;;;;;;5.03;1.50;;;;;;;31.55;24.99;99234.75;4485693;31;20445;-71
2022/07/20 08:29:00;;;;;;;8.77;1.60;;;;;;;31.53;24.70;99236.88;4485936;31;20115;-71
2022/07/20 08:31:33;;;;;;;4.12;1.50;;;;;;;31.85;24.82;99239.47;4486037;31;20110;-71
2022/07/20 08:34:00;;;;;;;7.85;1.98;;;;;;;31.97;24.58;99233.00;4485791;32;20119;-71
2022/07/20 08:36:27;;;;;;;8.88;1.90;;;;;;;32.03;23.83;99230.03;4485982;31;20460;-71
2022/07/20 08:38:55;;;;;;;7.15;1.40;;;;;;;31.99;23.70;99238.97;4485726;32;20534;-71
2022/07/20 08:41:22;;;;;;;3.20;1.40;;;;;;;31.70;24.19;99236.69;4485706;32;20144;-71
2022/07/20 08:43:49;;;;;;;3.05;1.70;;;;;;;31.74;24.31;99237.81;4485688;31;20488;-71
2022/07/20 08:46:18;;;;;;;5.20;1.92;;;;;;;32.07;23.91;99232.19;4485717;31;20096;-71
2022/07/20 08:48:46;;;;;;;14.20;1.95;;;;;;;31.94;24.37;99225.41;4484040;32;20152;-71
2022/07/20 08:51:13;;;;;;;9.18;1.37;;;;;;;31.86;23.47;99234.88;4484470;32;20096;-71
2022/07/20 08:53:40;;;;;;;3.65;1.40;;;;;;;31.91;23.32;99232.16;4485649;31;20143;-71
2022/07/20 08:56:09;;;;;;;7.40;1.37;;;;;;;32.14;22.78;99228.22;4485601;31;20430;-71
2022/07/20 08:58:36;;;;;;;6.15;1.75;;;;;;;32.38;23.53;99230.38;4485558;31;20457;-71
2022/07/20 09:01:05;;;;;;;4.00;1.48;;;;;;;32.09;23.21;99236.28;4485579;32;20112;-71
2022/07/20 09:03:33;;;;;;;5.87;1.48;;;;;;;32.05;23.19;99232.47;4485672;31;20122;-71
2022/07/20 09:06:05;;;;;;;7.03;1.58;;;;;;;32.21;22.93;99230.66;4484505;31;20108;-71
2022/07/20 09:08:33;;;;;;;6.93;1.20;;;;;;;32.10;22.94;99223.53;4485679;32;20080;-71
2022/07/20 09:11:02;;;;;;;3.47;1.60;;;;;;;32.41;23.09;99223.63;4485393;31;20127;-71
2022/07/20 09:13:31;;;;;;;6.03;1.77;;;;;;;32.41;23.45;99226.34;4485488;32;20163;-71
2022/07/20 09:15:58;;;;;;;4.95;1.65;;;;;;;32.72;23.72;99219.06;4485679;32;20127;-71
2022/07/20 09:18:28;;;;;;;3.92;1.60;;;;;;;32.96;24.25;99221.16;4482658;31;82428;-71
2022/07/20 09:21:04;;;;;;;6.43;1.80;;;;;;;33.20;23.07;99213.28;4485455;31;20084;-71
2022/07/20 09:23:33;;;;;;;5.53;1.50;;;;;;;33.41;21.83;99212.12;4485565;31;20583;-71
2022/07/20 09:26:04;;;;;;;4.18;1.65;;;;;;;33.61;22.88;99202.25;4485368;31;20119;-71
2022/07/20 09:28:34;;;;;;;2.70;1.65;;;;;;;33.89;22.04;99211.66;4485398;31;20091;-71
2022/07/20 09:31:02;;;;;;;9.85;1.70;;;;;;;33.82;22.21;99213.88;4485495;31;20084;-71
2022/07/20 09:33:30;;;;;;;6.32;1.95;;;;;;;33.63;21.73;99210.97;4485270;31;20457;-71
2022/07/20 09:36:02;;;;;;;6.97;1.92;;;;;;;33.24;22.98;99198.88;4485308;32;20123;-71
2022/07/20 09:38:33;;;;;;;3.12;1.62;;;;;;;33.73;22.47;99215.56;4485371;31;20076;-71
2022/07/20 09:41:03;;;;;;;2.80;1.50;;;;;;;33.75;21.06;99207.94;4485312;31;20088;-71
2022/07/20 09:43:36;;;;;;;4.15;1.70;;;;;;;33.72;21.42;99216.59;4485211;31;20095;-71
2022/07/20 09:46:18;;;;;;;2.65;1.40;;;;;;;33.43;21.31;99207.25;4485363;31;20134;-71
2022/07/20 09:48:51;;;;;;;4.25;1.65;;;;;;;33.57;21.51;99199.28;4484997;32;20088;-71
2022/07/20 09:51:26;;;;;;;2.95;1.60;;;;;;;33.92;22.11;99204.84;4485229;31;20114;-71
2022/07/20 09:54:06;;;;;;;3.58;1.60;;;;;;;34.11;22.18;99200.37;4485276;31;20453;-71
2022/07/20 09:56:36;;;;;;;192.65;14.27;;;;;;;33.93;21.34;99198.31;4485218;31;20371;-71
2022/07/20 09:59:05;;;;;;;21.58;2.50;;;;;;;33.22;22.16;99178.53;4485066;31;20123;-71
2022/07/20 10:01:35;;;;;;;5.45;1.70;;;;;;;33.39;22.04;99186.34;4485033;31;20151;-71
2022/07/20 10:04:05;;;;;;;3.03;1.52;;;;;;;33.65;21.85;99187.03;4485208;31;20103;-71
2022/07/20 10:06:34;;;;;;;7.90;1.37;;;;;;;33.80;21.11;99186.16;4485133;31;20803;-71
2022/07/20 10:09:02;;;;;;;9.13;1.65;;;;;;;33.99;22.34;99197.22;4485271;31;20139;-71
2022/07/20 10:11:30;;;;;;;9.80;2.10;;;;;;;34.43;21.08;99190.94;4485037;31;20088;-71
2022/07/20 10:13:59;;;;;;;5.28;1.50;;;;;;;34.25;21.13;99183.47;4485422;31;20089;-71
2022/07/20 10:16:37;;;;;;;2.90;1.50;;;;;;;34.40;21.91;99186.06;4483313;31;20104;-71
2022/07/20 10:19:06;;;;;;;4.00;1.77;;;;;;;34.43;20.32;99185.47;4483495;32;20119;-71
2022/07/20 10:21:35;;;;;;;3.75;1.50;;;;;;;34.55;21.11;99176.97;4484910;31;20461;-71
2022/07/20 10:24:17;;;;;;;3.08;1.33;;;;;;;34.90;21.89;99176.91;4484978;31;20420;-71
2022/07/20 10:26:46;;;;;;;5.10;1.50;;;;;;;34.96;19.72;99178.47;4484697;31;20104;-71
2022/07/20 10:29:28;;;;;;;2.87;1.70;;;;;;;34.66;19.80;99172.22;4483987;32;20131;-71
2022/07/20 10:32:16;;;;;;;4.30;1.55;;;;;;;34.38;20.17;99182.78;4484967;31;20085;-71
2022/07/20 10:34:49;;;;;;;5.18;1.50;;;;;;;34.55;20.55;99167.97;4484834;31;20160;-71
2022/07/20 10:37:25;;;;;;;;;;;;;;;34.90;20.31;99168.72;4485310;32;20081;-71
2022/07/20 10:40:21;;;;;;;5.95;1.35;;;;;;;34.79;21.03;99160.69;4485074;31;19986;-71
2022/07/20 10:43:09;;;;;;;6.18;1.60;;;;;;;35.06;20.50;99162.03;4484875;32;20116;-71
2022/07/20 10:45:36;;;;;;;12.55;1.45;;;;;;;35.59;20.20;99154.87;4420315;32;20159;-71
2022/07/20 10:48:12;;;;;;;3.78;1.40;;;;;;;35.83;19.41;99152.91;4419972;32;20179;-71
2022/07/20 10:50:41;;;;;;;2.80;1.77;;;;;;;35.83;19.51;99169.25;4420261;32;20105;-71
2022/07/20 10:53:15;;;;;;;5.47;1.48;;;;;;;35.84;19.42;99151.81;4420090;32;20089;-71
2022/07/20 10:55:42;;;;;;;5.00;1.70;;;;;;;36.07;19.44;99152.00;4420238;32;20486;-71
2022/07/20 10:58:17;;;;;;;2.00;1.30;;;;;;;35.76;18.71;99160.59;4420162;32;20161;-71
2022/07/20 11:00:47;;;;;;;4.82;1.33;;;;;;;35.24;18.98;99151.47;4420357;32;20467;-71
2022/07/20 11:03:27;;;;;;;4.28;1.30;;;;;;;34.81;19.53;99144.88;4420217;32;20124;-71
2022/07/20 11:06:04;;;;;;;2.03;1.50;;;;;;;35.41;20.36;99143.62;4420134;32;20094;-71
2022/07/20 11:08:36;;;;;;;3.60;1.40;;;;;;;35.96;19.49;99142.34;4420350;32;20467;-71
2022/07/20 11:11:04;;;;;;;4.82;1.45;;;;;;;36.13;18.82;99139.09;4420035;32;20693;-71
2022/07/20 11:13:31;;;;;;;1.95;1.42;;;;;;;36.49;18.72;99135.78;4419917;32;20471;-71
2022/07/20 11:16:02;;;;;;;2.60;1.80;;;;;;;36.26;18.03;99140.25;4419962;32;20120;-71
2022/07/20 11:18:33;;;;;;;5.40;1.35;;;;;;;35.70;18.71;99132.63;4419531;32;20152;-71
2022/07/20 11:21:04;;;;;;;3.90;1.95;;;;;;;35.42;18.69;99128.94;4407476;32;20125;-71
2022/07/20 11:23:48;;;;;;;2.22;1.48;;;;;;;35.69;18.60;99132.94;4472045;32;20141;-71
2022/07/20 11:26:18;;;;;;;5.32;1.50;;;;;;;35.34;19.19;99132.31;4484102;31;20099;-71
2022/07/20 11:28:54;;;;;;;2.90;1.60;;;;;;;35.88;19.54;99119.28;4485319;31;20119;-71
2022/07/20 11:31:32;;;;;;;5.18;1.75;;;;;;;36.34;19.05;99106.84;4486441;31;20454;-71
2022/07/20 11:33:59;;;;;;;1.70;1.50;;;;;;;36.41;19.01;99112.72;4486349;31;20416;-71
2022/07/20 11:36:29;;;;;;;5.18;1.62;;;;;;;36.34;18.65;99118.56;4486340;32;20145;-71
2022/07/20 11:39:02;;;;;;;6.75;1.50;;;;;;;36.28;20.16;99117.06;4486154;32;20092;-71